createdAt,value
2022-12-24T00:03:00.230Z,5.78
2022-12-24T00:08:02.099Z,8.20
2022-12-24T00:13:03.669Z,11.57
2022-12-24T00:18:05.408Z,9.65
2022-12-24T00:23:07.386Z,9.32
2022-12-24T00:28:09.136Z,9.13
2022-12-24T00:33:11.097Z,9.10
2022-12-24T00:38:12.659Z,14.05
2022-12-24T00:43:14.255Z,10.57
2022-12-24T00:48:15.805Z,13.80
2022-12-24T00:53:18.338Z,16.67
2022-12-24T00:58:19.913Z,18.40
2022-12-24T01:03:21.506Z,13.93
2022-12-24T01:08:23.108Z,12.68
2022-12-24T01:13:25.291Z,14.70
2022-12-24T01:18:27.283Z,16.30
2022-12-24T01:23:30.804Z,16.38
2022-12-24T01:28:33.422Z,21.65
2022-12-24T01:33:35.001Z,16.65
2022-12-24T01:38:36.596Z,10.68
2022-12-24T01:43:38.285Z,10.60
2022-12-24T01:48:47.835Z,16.52
2022-12-24T01:53:57.473Z,14.88
2022-12-24T01:59:05.224Z,13.20
2022-12-24T02:04:33.976Z,13.48
2022-12-24T02:09:36.451Z,11.82
2022-12-24T02:14:38.783Z,18.05
2022-12-24T02:20:43.847Z,16.20
2022-12-24T02:26:17.646Z,15.77
2022-12-24T02:31:35.756Z,14.85
2022-12-24T02:36:44.021Z,16.08
2022-12-24T02:42:05.936Z,16.30
2022-12-24T02:47:09.878Z,16.30
2022-12-24T02:52:31.239Z,12.35
2022-12-24T02:57:48.593Z,11.75
2022-12-24T03:03:08.213Z,15.63
2022-12-24T03:08:28.534Z,13.32
2022-12-24T03:13:30.158Z,12.15
2022-12-24T03:18:32.503Z,13.05
2022-12-24T03:23:35.031Z,20.45
2022-12-24T03:28:39.699Z,13.07
2022-12-24T03:33:41.632Z,18.80
2022-12-24T03:38:43.249Z,18.52
2022-12-24T03:43:44.959Z,20.88
2022-12-24T03:48:46.569Z,19.40
2022-12-24T03:53:48.156Z,15.63
2022-12-24T03:58:50.295Z,15.10
2022-12-24T04:03:51.922Z,23.52
2022-12-24T04:08:53.593Z,19.85
2022-12-24T04:13:55.263Z,18.13
2022-12-24T04:18:56.832Z,21.55
2022-12-24T04:23:58.434Z,14.38
2022-12-24T04:29:00.007Z,16.60
2022-12-24T04:34:01.682Z,16.55
2022-12-24T04:39:03.462Z,14.23
2022-12-24T04:44:05.167Z,21.05
2022-12-24T04:49:06.814Z,13.77
2022-12-24T04:54:08.433Z,19.45
2022-12-24T04:59:10.081Z,12.15
2022-12-24T05:04:11.694Z,18.35
2022-12-24T05:09:13.334Z,11.27
2022-12-24T05:14:14.929Z,11.48
2022-12-24T05:19:16.507Z,19.65
2022-12-24T05:24:36.735Z,14.57
2022-12-24T05:29:38.424Z,17.80
2022-12-24T05:34:40.001Z,23.98
2022-12-24T05:39:41.666Z,11.48
2022-12-24T05:44:43.219Z,13.70
2022-12-24T05:49:44.937Z,9.60
2022-12-24T05:54:46.582Z,14.63
2022-12-24T05:59:49.186Z,10.60
2022-12-24T06:04:50.858Z,13.82
2022-12-24T06:09:52.482Z,18.67
2022-12-24T06:14:54.025Z,13.35
2022-12-24T06:19:55.571Z,12.25
2022-12-24T06:24:57.172Z,9.90
2022-12-24T06:29:58.730Z,11.70
2022-12-24T06:35:00.337Z,9.15
2022-12-24T06:40:01.904Z,11.88
2022-12-24T06:45:08.189Z,12.80
2022-12-24T06:50:10.311Z,10.95
2022-12-24T06:55:12.077Z,11.93
2022-12-24T07:00:14.132Z,11.02
2022-12-24T07:05:16.154Z,15.65
2022-12-24T07:10:19.363Z,17.23
2022-12-24T07:15:20.906Z,19.38
2022-12-24T07:20:22.491Z,13.93
2022-12-24T07:25:24.073Z,13.77
2022-12-24T07:30:25.606Z,15.57
2022-12-24T07:35:27.252Z,11.27
2022-12-24T07:40:28.914Z,15.30
2022-12-24T07:45:32.853Z,6.45
2022-12-24T07:50:34.426Z,12.10
2022-12-24T07:55:36.065Z,13.05
2022-12-24T08:00:38.121Z,10.70
2022-12-24T08:05:39.684Z,11.93
2022-12-24T08:10:42.972Z,11.80
2022-12-24T08:15:45.596Z,10.80
2022-12-24T08:20:47.463Z,7.80
2022-12-24T08:25:49.260Z,12.90
2022-12-24T08:30:51.874Z,13.50
2022-12-24T08:35:55.274Z,9.85
2022-12-24T08:40:56.959Z,10.43
2022-12-24T08:46:04.334Z,7.15
2022-12-24T08:51:10.806Z,9.65
2022-12-24T08:56:12.759Z,12.70
2022-12-24T09:01:17.564Z,11.93
2022-12-24T09:06:19.359Z,12.10
2022-12-24T09:11:21.056Z,13.35
2022-12-24T09:16:23.029Z,12.30
2022-12-24T09:21:25.096Z,10.98
2022-12-24T09:26:29.894Z,16.00
2022-12-24T09:31:31.528Z,12.70
2022-12-24T09:36:34.340Z,16.50
2022-12-24T09:41:42.174Z,14.10
2022-12-24T09:46:47.405Z,23.95
2022-12-24T09:52:05.416Z,16.90
2022-12-24T09:57:17.359Z,21.45
2022-12-24T10:02:22.439Z,17.80
2022-12-24T10:08:06.183Z,24.98
2022-12-24T10:13:38.018Z,24.65
2022-12-24T10:18:58.268Z,23.17
2022-12-24T10:24:05.813Z,20.00
2022-12-24T10:29:21.422Z,22.88
2022-12-24T10:34:27.036Z,18.80
2022-12-24T10:39:28.655Z,23.50
2022-12-24T10:44:33.376Z,22.67
2022-12-24T10:49:49.911Z,18.05
2022-12-24T10:55:19.480Z,13.38
2022-12-24T11:00:29.951Z,16.27
2022-12-24T11:05:36.535Z,18.45
2022-12-24T11:10:42.484Z,17.08
2022-12-24T11:15:44.198Z,20.30
2022-12-24T11:20:52.273Z,19.63
2022-12-24T11:25:56.397Z,15.68
2022-12-24T11:31:00.056Z,19.67
2022-12-24T11:36:04.919Z,15.52
2022-12-24T11:41:15.496Z,18.45
2022-12-24T11:46:42.107Z,15.63
2022-12-24T11:52:02.820Z,10.95
2022-12-24T11:57:08.016Z,23.63
2022-12-24T12:02:25.122Z,17.40
2022-12-24T12:07:30.687Z,13.00
2022-12-24T12:12:37.552Z,15.20
2022-12-24T12:17:54.989Z,13.90
2022-12-24T12:23:20.438Z,10.32
2022-12-24T12:28:32.465Z,10.35
2022-12-24T12:33:41.594Z,9.50
2022-12-24T12:38:43.213Z,6.30
2022-12-24T12:44:09.564Z,15.35
2022-12-24T12:49:33.900Z,10.65
2022-12-24T12:54:54.083Z,14.05
2022-12-24T13:00:18.172Z,14.65
2022-12-24T13:05:25.752Z,10.13
2022-12-24T13:10:58.976Z,11.25
2022-12-24T13:16:31.523Z,10.95
2022-12-24T13:21:33.609Z,12.73
2022-12-24T13:26:35.600Z,8.63
2022-12-24T13:31:37.278Z,10.50
2022-12-24T13:37:04.386Z,11.32
2022-12-24T13:42:06.814Z,14.30
2022-12-24T13:47:14.395Z,8.23
2022-12-24T13:52:23.625Z,11.60
2022-12-24T13:57:45.356Z,11.00
2022-12-24T14:03:13.290Z,8.32
2022-12-24T14:08:24.066Z,8.90
2022-12-24T14:13:37.944Z,10.50
2022-12-24T14:18:42.362Z,8.88
2022-12-24T14:23:51.609Z,13.40
2022-12-24T14:29:06.589Z,10.73
2022-12-24T14:34:12.439Z,9.15
2022-12-24T14:39:23.715Z,13.35
2022-12-24T14:44:41.322Z,12.50
2022-12-24T14:50:11.306Z,7.05
2022-12-24T15:00:39.178Z,8.73
2022-12-24T15:05:41.982Z,9.45
2022-12-24T15:10:50.300Z,8.73
2022-12-24T15:15:54.315Z,15.25
2022-12-24T15:21:04.331Z,8.20
2022-12-24T15:26:22.690Z,9.70
2022-12-24T15:31:31.429Z,10.52
2022-12-24T15:36:37.278Z,13.95
2022-12-24T15:42:02.627Z,11.55
2022-12-24T15:47:08.653Z,11.57
2022-12-24T15:52:14.560Z,7.30
2022-12-24T15:57:33.627Z,7.25
2022-12-24T16:02:40.932Z,11.63
2022-12-24T16:08:02.621Z,9.80
2022-12-24T16:13:15.222Z,8.90
2022-12-24T16:18:34.093Z,9.75
2022-12-24T16:23:46.187Z,10.98
2022-12-24T16:28:48.341Z,10.60
2022-12-24T16:33:53.054Z,11.25
2022-12-24T16:39:13.415Z,12.38
2022-12-24T16:44:14.980Z,9.02
2022-12-24T16:49:18.745Z,10.38
2022-12-24T16:54:20.389Z,8.30
2022-12-24T16:59:23.896Z,11.15
2022-12-24T17:04:25.450Z,9.57
2022-12-24T17:09:27.115Z,10.43
2022-12-24T17:14:28.704Z,11.40
2022-12-24T17:19:30.247Z,8.65
2022-12-24T17:24:34.161Z,9.13
2022-12-24T17:29:35.686Z,6.35
2022-12-24T17:34:37.529Z,8.82
2022-12-24T17:39:39.142Z,10.30
2022-12-24T17:44:40.786Z,9.18
2022-12-24T17:49:42.384Z,11.60
2022-12-24T17:54:44.316Z,7.47
2022-12-24T17:59:45.903Z,8.13
2022-12-24T18:04:47.588Z,7.85
2022-12-24T18:09:49.287Z,6.28
2022-12-24T18:14:51.037Z,8.20
2022-12-24T18:19:52.628Z,6.82
2022-12-24T18:24:54.266Z,7.75
2022-12-24T18:29:55.937Z,8.85
2022-12-24T18:34:57.695Z,8.95
2022-12-24T18:39:59.285Z,7.75
2022-12-24T18:45:01.011Z,6.25
2022-12-24T18:50:02.584Z,8.52
2022-12-24T18:55:04.298Z,6.80
2022-12-24T19:00:06.837Z,4.97
2022-12-24T19:05:08.467Z,5.68
2022-12-24T19:10:10.570Z,7.35
2022-12-24T19:15:12.912Z,7.90
2022-12-24T19:20:14.469Z,8.90
2022-12-24T19:25:16.153Z,8.60
2022-12-24T19:30:17.767Z,8.25
2022-12-24T19:35:19.394Z,9.02
2022-12-24T19:40:23.336Z,9.88
2022-12-24T19:45:24.987Z,13.00
2022-12-24T19:50:26.587Z,9.52
2022-12-24T19:55:28.968Z,9.95
2022-12-24T20:00:30.543Z,9.43
2022-12-24T20:05:32.103Z,8.75
2022-12-24T20:10:41.864Z,6.53
2022-12-24T20:15:44.405Z,7.85
2022-12-24T20:20:45.956Z,8.35
2022-12-24T20:25:47.582Z,8.50
2022-12-24T20:30:49.116Z,5.90
2022-12-24T20:35:50.706Z,7.15
2022-12-24T20:40:57.057Z,10.57
2022-12-24T20:45:58.678Z,8.00
2022-12-24T20:51:00.426Z,9.15
2022-12-24T20:56:02.448Z,12.00
2022-12-24T21:01:12.820Z,8.23
2022-12-24T21:06:18.034Z,11.93
2022-12-24T21:11:46.046Z,13.43
2022-12-24T21:16:48.309Z,10.43
2022-12-24T21:21:49.974Z,6.97
2022-12-24T21:26:51.909Z,9.85
2022-12-24T21:31:53.625Z,7.30
2022-12-24T21:36:55.739Z,8.90
2022-12-24T21:41:57.475Z,10.52
2022-12-24T21:46:59.023Z,10.23
2022-12-24T21:52:00.683Z,11.25
2022-12-24T21:57:23.339Z,12.88
2022-12-24T22:02:29.248Z,12.68
2022-12-24T22:07:49.413Z,9.18
2022-12-24T22:12:51.023Z,13.40
2022-12-24T22:17:52.620Z,10.93
2022-12-24T22:22:54.327Z,10.80
2022-12-24T22:27:55.903Z,11.70
2022-12-24T22:32:58.572Z,8.93
2022-12-24T22:38:00.592Z,9.70
2022-12-24T22:43:02.420Z,10.75
2022-12-24T22:48:04.163Z,11.27
2022-12-24T22:53:05.745Z,11.45
2022-12-24T22:58:07.318Z,11.32
2022-12-24T23:03:10.178Z,13.10
2022-12-24T23:08:13.113Z,10.55
2022-12-24T23:13:33.428Z,10.70
2022-12-24T23:18:35.013Z,8.30
2022-12-24T23:23:37.536Z,12.98
2022-12-24T23:28:39.805Z,11.40
2022-12-24T23:33:41.644Z,9.13
2022-12-24T23:38:43.448Z,7.40
2022-12-24T23:43:45.872Z,11.55
2022-12-24T23:48:48.976Z,9.02
2022-12-24T23:53:52.245Z,8.73
2022-12-24T23:58:53.951Z,7.47
